createdAt,value
2023-05-08T00:02:57.799Z,70.54
2023-05-08T00:08:50.152Z,70.65
2023-05-08T00:14:05.766Z,70.75
2023-05-08T00:19:14.784Z,70.96
2023-05-08T00:25:16.231Z,71.26
2023-05-08T00:31:43.825Z,71.25
2023-05-08T00:38:08.484Z,71.58
2023-05-08T00:44:35.578Z,71.92
2023-05-08T00:51:38.423Z,72.21
2023-05-08T00:58:42.055Z,71.95
2023-05-08T01:05:44.437Z,71.56
2023-05-08T01:11:23.173Z,71.15
2023-05-08T01:17:26.306Z,70.99
2023-05-08T01:24:03.199Z,70.78
2023-05-08T01:30:29.186Z,70.70
2023-05-08T01:36:45.878Z,70.43
2023-05-08T01:42:50.759Z,70.03
2023-05-08T01:49:12.134Z,69.85
2023-05-08T01:55:35.823Z,69.68
2023-05-08T02:01:57.396Z,69.60
2023-05-08T02:08:24.144Z,69.27
2023-05-08T02:14:56.165Z,68.64
2023-05-08T02:21:29.909Z,68.68
2023-05-08T02:28:42.654Z,68.82
2023-05-08T02:35:45.186Z,68.79
2023-05-08T02:42:08.714Z,68.70
2023-05-08T02:47:58.056Z,68.65
2023-05-08T02:53:18.265Z,68.75
2023-05-08T02:58:36.762Z,68.75
2023-05-08T03:04:12.489Z,68.68
2023-05-08T03:10:25.124Z,68.92
2023-05-08T03:17:02.649Z,69.12
2023-05-08T03:23:27.021Z,69.14
2023-05-08T03:29:58.319Z,68.95
2023-05-08T03:36:19.996Z,69.00
2023-05-08T03:42:45.936Z,68.70
2023-05-08T03:49:20.057Z,68.21
2023-05-08T03:54:42.591Z,67.84
2023-05-08T04:00:49.805Z,67.41
2023-05-08T04:07:37.989Z,67.51
2023-05-08T04:14:41.862Z,67.65
2023-05-08T04:21:26.024Z,67.84
2023-05-08T04:27:49.123Z,67.87
2023-05-08T04:34:51.000Z,67.62
2023-05-08T04:41:52.872Z,67.28
2023-05-08T04:47:20.074Z,67.11
2023-05-08T04:52:50.220Z,66.83
2023-05-08T04:58:33.133Z,66.11
2023-05-08T05:03:49.765Z,64.71
2023-05-08T05:09:11.168Z,63.21
2023-05-08T05:14:42.763Z,63.35
2023-05-08T05:20:07.024Z,61.85
2023-05-08T05:26:08.786Z,63.45
2023-05-08T05:32:30.256Z,61.89
2023-05-08T05:38:48.254Z,59.77
2023-05-08T05:45:43.806Z,59.85
2023-05-08T05:51:22.785Z,59.70
2023-05-08T05:57:13.944Z,58.82
2023-05-08T06:02:28.582Z,58.40
2023-05-08T06:07:35.981Z,58.75
2023-05-08T06:12:47.230Z,58.35
2023-05-08T06:17:53.787Z,56.92
2023-05-08T06:23:07.980Z,56.96
2023-05-08T06:28:12.566Z,56.31
2023-05-08T06:33:29.310Z,56.70
2023-05-08T06:38:39.530Z,57.55
2023-05-08T06:43:50.887Z,57.79
2023-05-08T06:48:58.333Z,57.72
2023-05-08T06:54:28.825Z,57.38
2023-05-08T06:59:43.756Z,55.49
2023-05-08T07:04:50.066Z,56.03
2023-05-08T07:10:07.945Z,56.58
2023-05-08T07:15:26.434Z,57.65
2023-05-08T07:20:57.636Z,58.30
2023-05-08T07:26:05.932Z,58.64
2023-05-08T07:31:27.967Z,58.21
2023-05-08T07:36:33.316Z,57.81
2023-05-08T07:41:40.364Z,56.90
2023-05-08T07:47:07.470Z,56.87
2023-05-08T07:52:13.765Z,55.39
2023-05-08T07:57:26.329Z,54.88
2023-05-08T08:02:38.414Z,53.31
2023-05-08T08:07:50.363Z,52.00
2023-05-08T08:13:26.146Z,49.98
2023-05-08T08:18:40.835Z,49.13
2023-05-08T08:23:53.377Z,49.21
2023-05-08T08:28:55.898Z,48.59
2023-05-08T08:34:05.544Z,47.87
2023-05-08T08:39:47.071Z,46.34
2023-05-08T08:45:16.184Z,46.44
2023-05-08T08:50:35.310Z,44.38
2023-05-08T08:55:55.344Z,44.93
2023-05-08T09:00:59.701Z,44.75
2023-05-08T09:06:36.061Z,41.30
2023-05-08T09:11:49.067Z,41.79
2023-05-08T09:17:06.809Z,42.10
2023-05-08T09:22:23.157Z,40.92
2023-05-08T09:27:42.194Z,42.05
2023-05-08T09:32:49.517Z,43.04
2023-05-08T09:37:56.119Z,40.90
2023-05-08T09:43:15.068Z,37.91
2023-05-08T09:48:39.648Z,40.45
2023-05-08T09:53:42.303Z,38.69
2023-05-08T09:58:55.102Z,38.13
2023-05-08T10:04:33.208Z,36.85
2023-05-08T10:11:04.385Z,37.48
2023-05-08T10:16:22.102Z,38.92
2023-05-08T10:21:28.160Z,36.85
2023-05-08T10:27:22.498Z,35.42
2023-05-08T10:33:36.358Z,34.72
2023-05-08T10:40:00.058Z,34.60
2023-05-08T10:46:27.199Z,32.36
2023-05-08T10:53:09.491Z,34.21
2023-05-08T10:59:56.876Z,33.80
2023-05-08T11:05:23.888Z,32.98
2023-05-08T11:10:32.756Z,33.16
2023-05-08T11:15:51.693Z,32.94
2023-05-08T11:21:17.268Z,32.46
2023-05-08T11:26:22.450Z,32.46
2023-05-08T11:31:49.574Z,32.97
2023-05-08T11:37:05.463Z,31.14
2023-05-08T11:42:28.200Z,29.88
2023-05-08T11:48:02.659Z,30.08
2023-05-08T11:53:16.304Z,30.66
2023-05-08T11:58:32.618Z,28.30
2023-05-08T12:03:37.199Z,30.03
2023-05-08T12:08:53.807Z,30.52
2023-05-08T12:14:18.213Z,30.76
2023-05-08T12:19:45.799Z,32.04
2023-05-08T12:25:39.858Z,31.11
2023-05-08T12:31:00.734Z,30.71
2023-05-08T12:36:26.589Z,30.57
2023-05-08T12:41:54.172Z,30.19
2023-05-08T12:46:59.564Z,29.32
2023-05-08T12:52:08.709Z,28.86
2023-05-08T12:57:28.250Z,29.10
2023-05-08T13:02:37.306Z,28.80
2023-05-08T13:08:05.232Z,28.94
2023-05-08T13:13:13.636Z,30.12
2023-05-08T13:18:30.046Z,30.64
2023-05-08T13:23:32.172Z,30.22
2023-05-08T13:28:39.663Z,31.30
2023-05-08T13:33:44.406Z,31.41
2023-05-08T13:38:56.669Z,31.64
2023-05-08T13:43:58.495Z,31.29
2023-05-08T13:49:03.306Z,29.44
2023-05-08T13:54:05.326Z,31.26
2023-05-08T13:59:09.827Z,32.56
2023-05-08T14:04:24.670Z,32.15
2023-05-08T14:09:27.044Z,31.81
2023-05-08T14:15:36.552Z,31.00
2023-05-08T14:21:58.821Z,31.62
2023-05-08T14:28:19.933Z,30.43
2023-05-08T14:34:41.185Z,30.97
2023-05-08T14:40:06.328Z,31.88
2023-05-08T14:45:08.916Z,30.16
2023-05-08T14:50:16.693Z,31.99
2023-05-08T14:55:20.385Z,33.18
2023-05-08T15:00:43.109Z,34.24
2023-05-08T15:06:04.224Z,35.38
2023-05-08T15:11:10.605Z,34.96
2023-05-08T15:17:11.945Z,34.79
2023-05-08T15:23:33.566Z,35.67
2023-05-08T15:30:00.940Z,36.40
2023-05-08T15:35:28.272Z,37.86
2023-05-08T15:40:35.476Z,38.02
2023-05-08T15:45:40.621Z,38.63
2023-05-08T15:51:28.521Z,39.06
2023-05-08T15:57:12.248Z,39.83
2023-05-08T16:02:50.430Z,39.79
2023-05-08T16:08:44.614Z,40.03
2023-05-08T16:14:42.832Z,40.98
2023-05-08T16:20:15.160Z,40.44
2023-05-08T16:25:46.557Z,41.46
2023-05-08T16:31:11.370Z,41.88
2023-05-08T16:36:57.901Z,42.20
2023-05-08T16:42:09.028Z,42.83
2023-05-08T16:47:14.494Z,42.80
2023-05-08T16:52:16.979Z,43.03
2023-05-08T16:57:23.380Z,43.42
2023-05-08T17:02:25.862Z,43.67
2023-05-08T17:08:17.393Z,44.23
2023-05-08T17:13:21.981Z,44.68
2023-05-08T17:18:41.742Z,45.17
2023-05-08T17:23:50.020Z,45.52
2023-05-08T17:28:55.695Z,45.97
2023-05-08T17:34:00.765Z,45.75
2023-05-08T17:40:04.819Z,45.52
2023-05-08T17:46:25.925Z,45.60
2023-05-08T17:52:47.271Z,45.91
2023-05-08T17:59:16.432Z,46.22
2023-05-08T18:05:38.120Z,46.50
2023-05-08T18:12:22.522Z,47.26
2023-05-08T18:18:25.073Z,47.89
2023-05-08T18:23:46.748Z,47.92
2023-05-08T18:30:07.662Z,48.40
2023-05-08T18:35:20.987Z,48.99
2023-05-08T18:40:24.613Z,49.61
2023-05-08T18:45:42.462Z,50.18
2023-05-08T18:51:28.470Z,50.67
2023-05-08T18:56:50.732Z,51.11
2023-05-08T19:01:58.681Z,51.63
2023-05-08T19:07:01.643Z,51.93
2023-05-08T19:13:07.426Z,52.11
2023-05-08T19:19:28.604Z,52.64
2023-05-08T19:25:52.573Z,53.23
2023-05-08T19:33:04.509Z,53.81
2023-05-08T19:39:26.125Z,54.32
2023-05-08T19:45:47.868Z,54.64
2023-05-08T19:53:46.143Z,55.13
2023-05-08T20:00:13.981Z,55.54
2023-05-08T20:06:51.809Z,56.24
2023-05-08T20:12:53.230Z,56.48
2023-05-08T20:19:14.605Z,56.74
2023-05-08T20:25:56.390Z,56.88
2023-05-08T20:32:30.576Z,57.32
2023-05-08T20:38:58.564Z,57.57
2023-05-08T20:45:23.095Z,57.83
2023-05-08T20:51:57.526Z,58.28
2023-05-08T20:58:21.329Z,58.60
2023-05-08T21:05:04.104Z,58.77
2023-05-08T21:11:37.841Z,59.16
2023-05-08T21:18:07.694Z,59.40
2023-05-08T21:23:12.861Z,60.01
2023-05-08T21:28:35.204Z,60.42
2023-05-08T21:34:24.763Z,60.71
2023-05-08T21:40:06.514Z,60.73
2023-05-08T21:45:17.473Z,60.88
2023-05-08T21:51:04.984Z,61.16
2023-05-08T21:56:23.202Z,61.28
2023-05-08T22:01:30.021Z,61.72
2023-05-08T22:06:56.413Z,62.18
2023-05-08T22:12:27.520Z,62.76
2023-05-08T22:18:35.633Z,62.77
2023-05-08T22:25:02.929Z,63.12
2023-05-08T22:31:24.691Z,63.40
2023-05-08T22:38:11.809Z,63.43
2023-05-08T22:44:36.669Z,63.38
2023-05-08T22:50:41.534Z,63.58
2023-05-08T22:56:49.930Z,63.72
2023-05-08T23:03:30.973Z,64.02
2023-05-08T23:09:38.612Z,64.28
2023-05-08T23:15:58.833Z,64.22
2023-05-08T23:23:00.746Z,64.61
2023-05-08T23:29:42.208Z,64.75
2023-05-08T23:36:03.586Z,64.76
2023-05-08T23:42:42.959Z,64.99
2023-05-08T23:49:08.193Z,65.08
2023-05-08T23:55:38.516Z,65.25
